Time;durP1;ratioP1;P1;durP2;ratioP2;P2;SDS_P1;SDS_P2;PMS_P1;PMS_P2;Temp;Humidity;BMP_temperature;BMP_pressure;BME280_temperature;BME280_humidity;BME280_pressure;Samples;Min_cycle;Max_cycle;Signal;HPM_P1;HPM_P2
2022/02/02 00:00:14;;;;;;;;;;;;;;;12.06;74.83;101724.47;7353138;19;19919;-63
2022/02/02 00:02:48;;;;;;;;;;;;;;;12.06;74.33;101721.88;7358721;19;19923;-62
2022/02/02 00:07:55;;;;;;;;;;;;;;;11.96;74.56;101696.69;7361058;19;19919;-63
2022/02/02 00:13:14;;;;;;;;;;;;;;;11.95;74.32;101705.44;7358721;19;19930;-63
2022/02/02 00:16:02;;;;;;;;;;;;;;;11.91;74.42;101714.19;7350471;19;20713;-63
2022/02/02 00:21:03;;;;;;;;;;;;;;;11.85;74.41;101698.56;7260195;19;20348;-63
2022/02/02 00:23:35;;;;;;;;;;;;;;;11.83;74.98;101700.34;1203931;19;10001930;-63
2022/02/02 00:26:07;;;;;;;;;;;;;;;11.83;74.85;101705.59;7359416;19;20656;-63
2022/02/02 00:28:37;;;;;;;;;;;;;;;11.81;75.24;101702.06;7360893;19;19985;-63
2022/02/02 00:31:07;;;;;;;;;;;;;;;11.80;74.93;101697.72;7359722;19;19919;-63
2022/02/02 00:33:39;;;;;;;;;;;;;;;11.81;75.00;101708.22;7358496;19;19929;-63
2022/02/02 00:36:13;;;;;;;;;;;;;;;11.82;75.38;101703.88;7359720;19;19928;-63
2022/02/02 00:38:38;;;;;;;;;;;;;;;11.81;75.28;101707.31;7359268;19;19967;-63
2022/02/02 00:41:03;;;;;;;;;;;;;;;11.82;75.19;101719.56;7360749;19;19982;-63
2022/02/02 00:43:29;;;;;;;;;;;;;;;11.83;74.97;101705.59;7360118;19;20001;-63
2022/02/02 00:45:54;;;;;;;;;;;;;;;11.83;74.94;101716.06;7354216;19;20445;-63
2022/02/02 00:48:25;;;;;;;;;;;;;;;11.78;75.02;101715.22;7359894;19;20506;-62
2022/02/02 00:50:50;;;;;;;;;;;;;;;11.82;75.30;101719.56;7357661;19;19948;-63
2022/02/02 00:53:17;;;;;;;;;;;;;;;11.84;74.97;101723.88;7363700;19;19923;-63
2022/02/02 00:55:42;;;;;;;;;;;;;;;11.84;74.97;101733.50;7358465;19;19922;-63
2022/02/02 00:58:08;;;;;;;;;;;;;;;11.85;75.05;101735.22;7359608;19;19922;-63
2022/02/02 01:00:33;;;;;;;;;;;;;;;11.85;75.19;101736.06;7363251;19;19996;-63
2022/02/02 01:02:58;;;;;;;;;;;;;;;11.85;75.16;101756.16;7363307;19;19922;-63
2022/02/02 01:05:24;;;;;;;;;;;;;;;11.87;75.33;101757.03;7363283;19;20650;-63
2022/02/02 01:10:44;;;;;;;;;;;;;;;11.87;75.07;101750.03;7366476;19;19925;-63
2022/02/02 01:18:34;;;;;;;;;;;;;;;11.87;74.47;101757.03;7367162;19;19991;-63
2022/02/02 01:21:16;;;;;;;;;;;;;;;11.86;74.74;101768.34;7366723;19;19926;-63
2022/02/02 01:29:09;;;;;;;;;;;;;;;11.73;74.37;101749.28;7363038;19;19935;-63
2022/02/02 01:31:35;;;;;;;;;;;;;;;11.57;74.13;101729.41;7361713;19;20588;-63
2022/02/02 01:34:00;;;;;;;;;;;;;;;11.63;74.10;101758.97;7358207;19;19915;-63
2022/02/02 01:36:25;;;;;;;;;;;;;;;11.60;73.99;101755.50;7363224;19;19949;-63
2022/02/02 01:38:52;;;;;;;;;;;;;;;11.55;74.14;101758.16;7357498;19;19945;-63
2022/02/02 01:41:24;;;;;;;;;;;;;;;11.52;74.51;101763.44;7362314;19;20329;-63
2022/02/02 01:43:58;;;;;;;;;;;;;;;11.49;74.50;101763.47;7359666;19;19945;-63
2022/02/02 01:46:24;;;;;;;;;;;;;;;11.45;74.20;101756.53;7360803;19;19944;-63
2022/02/02 01:53:54;;;;;;;;;;;;;;;11.35;74.02;101770.56;7363553;19;19930;-63
2022/02/02 01:56:19;;;;;;;;;;;;;;;11.31;74.13;101769.75;7367527;19;19919;-63
2022/02/02 02:01:22;;;;;;;;;;;;;;;11.27;74.24;101754.09;7366439;19;20716;-63
2022/02/02 02:03:48;;;;;;;;;;;;;;;11.25;74.42;101754.09;7368627;19;19922;-63
2022/02/02 02:06:13;;;;;;;;;;;;;;;11.24;74.18;101760.19;7358757;19;19962;-63
2022/02/02 02:08:40;;;;;;;;;;;;;;;11.24;74.20;101756.72;7359766;19;19918;-63
2022/02/02 02:11:14;;;;;;;;;;;;;;;11.23;74.50;101757.59;1902787;19;10022822;-63
2022/02/02 02:16:11;;;;;;;;;;;;;;;11.20;74.33;101768.94;7357626;19;19939;-63
2022/02/02 02:18:36;;;;;;;;;;;;;;;11.20;74.36;101757.63;7355185;19;19919;-63
2022/02/02 02:21:09;;;;;;;;;;;;;;;11.19;74.19;101764.59;7359080;19;19926;-63
2022/02/02 02:23:34;;;;;;;;;;;;;;;11.18;74.06;101766.34;7361769;19;19918;-63
2022/02/02 02:25:59;;;;;;;;;;;;;;;11.16;74.40;101765.50;7363424;19;19927;-63
2022/02/02 02:28:37;;;;;;;;;;;;;;;11.14;74.14;101756.78;7360651;19;19918;-63
2022/02/02 02:34:14;;;;;;;;;;;;;;;11.08;73.79;101762.06;7250165;19;2004619;-63
2022/02/02 02:39:28;;;;;;;;;;;;;;;11.01;73.96;101763.00;7358051;19;19945;-63
2022/02/02 03:13:57;;;;;;;;;;;;;;;10.73;73.89;101737.94;7364402;19;19919;-63
2022/02/02 03:59:42;;;;;;;;;;;;;;;11.27;73.73;101699.19;7366921;19;19931;-62
2022/02/02 04:02:45;;;;;;;;;;;;;;;11.26;73.76;101693.09;7362969;19;19922;-63
2022/02/02 04:07:42;;;;;;;;;;;;;;;11.20;73.26;101682.66;1458534;19;10021093;-63
2022/02/02 04:10:08;;;;;;;;;;;;;;;11.14;73.24;101683.59;7262338;19;2004632;-63
2022/02/02 04:13:07;;;;;;;;;;;;;;;11.08;73.30;101686.28;7366506;19;21065;-64
2022/02/02 05:04:32;;;;;;;;;;;;;;;10.45;74.09;101685.03;7367034;19;19982;-63
2022/02/02 05:07:07;;;;;;;;;;;;;;;10.45;74.02;101691.13;7368883;19;20617;-63
2022/02/02 05:48:47;;;;;;;;;;;;;;;10.34;73.76;101724.25;7364410;19;19915;-63
2022/02/02 05:51:23;;;;;;;;;;;;;;;10.31;73.50;101729.50;7365552;19;19919;-63
2022/02/02 05:53:48;;;;;;;;;;;;;;;10.30;73.72;101731.25;7359205;19;19923;-63
2022/02/02 05:56:14;;;;;;;;;;;;;;;10.28;73.95;101729.50;7365418;19;19926;-63
2022/02/02 05:58:50;;;;;;;;;;;;;;;10.25;74.11;101725.19;1095440;19;10001904;-63
2022/02/02 06:01:15;;;;;;;;;;;;;;;10.28;74.26;101739.94;7363010;19;19923;-63
2022/02/02 06:03:54;;;;;;;;;;;;;;;10.28;74.06;101739.94;7365513;19;19922;-63
2022/02/02 06:06:21;;;;;;;;;;;;;;;10.28;74.22;101740.81;7358134;19;19991;-63
2022/02/02 06:08:47;;;;;;;;;;;;;;;10.29;74.27;101744.28;7366918;19;20944;-62
2022/02/02 06:11:14;;;;;;;;;;;;;;;10.30;74.09;101743.44;7364649;19;19933;-63
2022/02/02 06:13:46;;;;;;;;;;;;;;;10.32;74.27;101741.66;7363704;19;19940;-63
2022/02/02 06:16:11;;;;;;;;;;;;;;;10.34;74.23;101740.81;7362938;19;20034;-63
2022/02/02 06:18:37;;;;;;;;;;;;;;;10.36;74.66;101733.81;7362865;19;19911;-63
2022/02/02 06:21:07;;;;;;;;;;;;;;;10.39;74.42;101732.91;7365610;19;19948;-63
2022/02/02 06:23:37;;;;;;;;;;;;;;;10.42;74.63;101738.13;7356989;19;19919;-63
2022/02/02 06:26:03;;;;;;;;;;;;;;;10.43;74.27;101734.63;7360781;19;19934;-62
2022/02/02 06:28:31;;;;;;;;;;;;;;;10.46;74.76;101734.63;7362453;19;19914;-63
2022/02/02 06:30:58;;;;;;;;;;;;;;;10.48;74.61;101738.09;7361660;19;19929;-63
2022/02/02 06:33:29;;;;;;;;;;;;;;;10.50;74.33;101731.13;7365429;19;19911;-62
2022/02/02 06:35:55;;;;;;;;;;;;;;;10.52;74.52;101726.75;7359928;19;19952;-64
2022/02/02 06:38:22;;;;;;;;;;;;;;;10.55;74.38;101725.88;7362088;19;20325;-63
2022/02/02 06:40:48;;;;;;;;;;;;;;;10.56;74.33;101731.09;7361653;19;19918;-64
2022/02/02 06:43:13;;;;;;;;;;;;;;;10.59;74.68;101728.47;7355646;19;19924;-63
2022/02/02 06:45:40;;;;;;;;;;;;;;;10.60;74.25;101737.19;7363712;19;19911;-63
2022/02/02 06:48:05;;;;;;;;;;;;;;;10.62;74.64;101741.50;7353081;19;19993;-63
2022/02/02 06:50:35;;;;;;;;;;;;;;;10.65;74.47;101740.63;7362889;19;19929;-63
2022/02/02 06:55:46;;;;;;;;;;;;;;;10.70;74.31;101732.75;7363524;19;19928;-63
2022/02/02 06:58:22;;;;;;;;;;;;;;;10.71;74.41;101743.19;7359961;19;19931;-63
2022/02/02 07:01:09;;;;;;;;;;;;;;;10.74;74.63;101734.44;7357274;19;19926;-63
2022/02/02 07:03:55;;;;;;;;;;;;;;;10.77;74.72;101734.44;7358061;19;19919;-63
2022/02/02 07:09:22;;;;;;;;;;;;;;;10.81;74.56;101728.31;7360110;19;19926;-63
2022/02/02 07:12:02;;;;;;;;;;;;;;;10.83;74.43;101737.88;7351926;19;20678;-63
2022/02/02 07:14:59;;;;;;;;;;;;;;;10.85;74.50;101737.88;7357391;19;20682;-63
2022/02/02 07:20:39;;;;;;;;;;;;;;;10.86;74.18;101744.84;7250416;19;2004492;-63
2022/02/02 07:26:06;;;;;;;;;;;;;;;10.87;74.11;101751.78;7353156;19;19919;-63
2022/02/02 07:33:44;;;;;;;;;;;;;;;10.86;74.46;101781.41;7363792;19;19918;-63
2022/02/02 07:36:17;;;;;;;;;;;;;;;10.87;74.47;101780.53;7365485;19;19943;-63
2022/02/02 07:38:58;;;;;;;;;;;;;;;10.86;74.50;101777.06;7362304;19;20432;-63
2022/02/02 07:41:25;;;;;;;;;;;;;;;10.87;74.36;101785.75;7367880;19;19926;-63
2022/02/02 07:43:52;;;;;;;;;;;;;;;10.86;74.33;101787.50;7362870;19;19915;-64
2022/02/02 07:46:25;;;;;;;;;;;;;;;10.86;74.50;101782.28;7363726;19;19922;-62
2022/02/02 07:48:50;;;;;;;;;;;;;;;10.86;74.02;101787.50;7366602;19;19911;-63
2022/02/02 07:51:16;;;;;;;;;;;;;;;10.86;74.31;101782.28;7363156;19;19940;-63
2022/02/02 07:53:49;;;;;;;;;;;;;;;10.87;74.57;101780.53;7365524;19;19923;-63
2022/02/02 07:56:17;;;;;;;;;;;;;;;10.87;74.63;101763.09;7365065;19;19919;-63
2022/02/02 07:58:47;;;;;;;;;;;;;;;10.87;74.47;101749.19;7358928;19;19931;-63
2022/02/02 08:01:14;;;;;;;;;;;;;;;10.86;74.56;101760.50;7366065;19;19915;-63
2022/02/02 08:03:43;;;;;;;;;;;;;;;10.85;74.42;101764.00;7369181;19;19950;-63
2022/02/02 08:06:10;;;;;;;;;;;;;;;10.84;74.70;101789.25;7368820;19;19915;-63
2022/02/02 08:08:37;;;;;;;;;;;;;;;10.85;74.37;101791.00;7370707;19;19925;-62
2022/02/02 08:11:06;;;;;;;;;;;;;;;10.86;74.46;101778.81;7366980;19;19945;-63
2022/02/02 08:13:42;;;;;;;;;;;;;;;10.87;74.66;101783.16;7366257;19;20548;-63
2022/02/02 08:16:11;;;;;;;;;;;;;;;10.89;75.04;101786.59;7368751;19;20962;-63
2022/02/02 08:18:39;;;;;;;;;;;;;;;10.91;74.86;101796.19;7355102;19;19966;-62
2022/02/02 08:21:05;;;;;;;;;;;;;;;10.94;74.84;101790.06;7361081;19;20336;-63
2022/02/02 08:23:30;;;;;;;;;;;;;;;10.97;74.90;101782.22;7365512;19;19915;-63
2022/02/02 08:25:58;;;;;;;;;;;;;;;11.00;74.79;101781.31;7337558;19;19919;-63
2022/02/02 08:28:24;;;;;;;;;;;;;;;11.02;74.65;101772.59;7343953;19;20007;-63
2022/02/02 08:30:50;;;;;;;;;;;;;;;11.04;74.72;101759.50;7340243;19;19938;-63
2022/02/02 08:33:20;;;;;;;;;;;;;;;11.07;74.72;101770.81;7367529;19;19941;-63
2022/02/02 08:35:50;;;;;;;;;;;;;;;11.07;74.83;101760.34;7352050;19;19915;-63
2022/02/02 08:41:09;;;;;;;;;;;;;;;11.09;74.50;101768.16;7364737;19;19952;-63
2022/02/02 08:43:42;;;;;;;;;;;;;;;11.07;74.82;101760.34;7367532;19;20725;-63
2022/02/02 08:46:12;;;;;;;;;;;;;;;11.07;74.79;101765.56;7361526;19;20292;-63
2022/02/02 08:48:41;;;;;;;;;;;;;;;11.06;74.57;101769.06;7358064;19;20687;-63
2022/02/02 08:51:11;;;;;;;;;;;;;;;11.07;74.64;101765.56;7362281;19;20575;-64
2022/02/02 08:53:50;;;;;;;;;;;;;;;11.07;74.54;101762.09;7357922;19;19923;-63
2022/02/02 08:59:17;;;;;;;;;;;;;;;11.08;74.91;101767.31;7355065;19;19915;-63
2022/02/02 09:01:42;;;;;;;;;;;;;;;11.09;74.65;101769.03;7362516;19;19925;-63
2022/02/02 09:06:51;;;;;;;;;;;;;;;11.10;74.76;101768.19;1264454;19;10001822;-63
2022/02/02 09:09:23;;;;;;;;;;;;;;;11.13;74.84;101767.28;7362999;19;19942;-63
2022/02/02 09:25:07;;;;;;;;;;;;;;;11.25;74.62;101758.44;7356968;19;19941;-63
2022/02/02 09:35:37;;;;;;;;;;;;;;;11.32;74.78;101760.16;7359923;19;19925;-62
2022/02/02 09:38:03;;;;;;;;;;;;;;;11.33;75.02;101751.41;7354028;19;20325;-63
2022/02/02 09:42:59;;;;;;;;;;;;;;;11.37;74.99;101750.50;7351002;19;19930;-63
2022/02/02 09:45:27;;;;;;;;;;;;;;;11.40;74.85;101742.63;7353671;19;19915;-63
2022/02/02 09:48:06;;;;;;;;;;;;;;;11.41;74.73;101758.31;7360513;19;19978;-63
2022/02/02 09:50:36;;;;;;;;;;;;;;;11.43;74.79;101747.84;7358284;19;19919;-63
2022/02/02 09:53:04;;;;;;;;;;;;;;;11.44;74.85;101749.56;7354284;19;19953;-62
2022/02/02 10:03:22;;;;;;;;;;;;;;;11.52;74.95;101757.34;7366859;19;19934;-63
2022/02/02 10:06:00;;;;;;;;;;;;;;;11.54;74.98;101763.44;7360923;19;19918;-62
2022/02/02 10:11:36;;;;;;;;;;;;;;;11.57;74.71;101759.03;7359703;19;19931;-63
2022/02/02 10:14:14;;;;;;;;;;;;;;;11.60;74.59;101759.00;7260241;19;2004176;-62
2022/02/02 10:16:46;;;;;;;;;;;;;;;11.62;74.64;101754.63;7364307;19;19919;-63
2022/02/02 10:19:13;;;;;;;;;;;;;;;11.64;74.80;101768.53;7355309;19;19923;-63
2022/02/02 10:21:38;;;;;;;;;;;;;;;11.67;74.96;101765.06;7357798;19;19936;-63
2022/02/02 10:24:04;;;;;;;;;;;;;;;11.60;74.64;101742.44;7361584;19;19911;-62
2022/02/02 10:26:29;;;;;;;;;;;;;;;11.74;75.16;101760.59;7360457;19;19919;-63
2022/02/02 10:29:05;;;;;;;;;;;;;;;11.79;74.75;101761.44;7355364;19;20553;-63
2022/02/02 10:31:41;;;;;;;;;;;;;;;11.83;74.94;101755.31;7362129;19;19926;-63
2022/02/02 10:34:13;;;;;;;;;;;;;;;11.87;74.93;101755.28;7361605;19;19940;-63
2022/02/02 10:36:38;;;;;;;;;;;;;;;11.90;74.61;101746.50;7357749;19;19982;-63
2022/02/02 10:39:09;;;;;;;;;;;;;;;11.93;74.49;101759.56;7363303;19;19982;-63
2022/02/02 10:41:44;;;;;;;;;;;;;;;11.97;74.78;101756.03;7358946;19;19945;-62
2022/02/02 10:44:19;;;;;;;;;;;;;;;12.01;74.55;101751.59;7362385;19;19936;-63
2022/02/02 10:47:08;;;;;;;;;;;;;;;12.02;74.66;101749.00;7359779;19;19941;-63
2022/02/02 10:50:21;;;;;;;;;;;;;;;12.05;74.44;101738.47;7361551;19;19914;-63
2022/02/02 10:52:47;;;;;;;;;;;;;;;12.08;74.35;101743.69;5832719;19;10000571;-63
2022/02/02 10:58:07;;;;;;;;;;;;;;;12.14;74.27;101746.22;7359309;19;19911;-63
2022/02/02 11:00:48;;;;;;;;;;;;;;;12.14;74.26;101743.59;7357025;19;19915;-63
2022/02/02 11:08:42;;;;;;;;;;;;;;;12.17;74.21;101733.09;7367909;19;19917;-63
2022/02/02 11:11:10;;;;;;;;;;;;;;;12.17;73.71;101735.72;7354540;19;19934;-63
2022/02/02 11:13:35;;;;;;;;;;;;;;;12.18;73.74;101713.88;7358512;19;20401;-63
2022/02/02 11:16:02;;;;;;;;;;;;;;;12.20;73.68;101717.31;7366086;19;19918;-63
2022/02/02 11:18:28;;;;;;;;;;;;;;;12.22;73.97;101711.22;7364946;19;19926;-63
2022/02/02 11:20:54;;;;;;;;;;;;;;;12.24;74.08;101719.91;7364451;19;19919;-62
2022/02/02 11:23:21;;;;;;;;;;;;;;;12.25;74.02;101725.13;7360948;19;20343;-63
2022/02/02 11:25:59;;;;;;;;;;;;;;;12.27;74.02;101722.50;7368652;19;20019;-62
2022/02/02 11:28:34;;;;;;;;;;;;;;;12.29;74.04;101721.59;7357806;19;20344;-62
2022/02/02 11:31:09;;;;;;;;;;;;;;;12.32;73.88;101729.41;7368823;19;19922;-63
2022/02/02 11:33:56;;;;;;;;;;;;;;;12.36;73.80;101738.06;7361604;19;19922;-63
2022/02/02 11:36:29;;;;;;;;;;;;;;;12.38;73.58;101747.66;7369845;19;20361;-63
2022/02/02 11:38:56;;;;;;;;;;;;;;;12.42;73.72;101733.63;7362937;19;19939;-63
2022/02/02 11:44:32;;;;;;;;;;;;;;;12.48;73.88;101737.91;7266872;19;2004281;-63
2022/02/02 11:47:09;;;;;;;;;;;;;;;12.46;73.96;101722.19;7358706;19;19930;-63
2022/02/02 11:49:52;;;;;;;;;;;;;;;12.55;73.92;101734.31;7362966;19;19915;-63
2022/02/02 11:52:34;;;;;;;;;;;;;;;12.60;73.36;101716.78;7366470;19;19919;-63
2022/02/02 11:55:00;;;;;;;;;;;;;;;12.64;73.72;101707.13;7357882;19;19925;-63
2022/02/02 11:57:33;;;;;;;;;;;;;;;12.66;73.21;101700.94;7357919;19;19919;-63
2022/02/02 12:03:30;;;;;;;;;;;;;;;12.72;73.49;101669.44;7261241;19;2004388;-63
2022/02/02 12:11:18;;;;;;;;;;;;;;;12.93;73.29;101662.97;7344520;19;19968;-63
2022/02/02 12:47:09;;;;;;;;;;;;;;;13.23;71.70;101631.88;7261610;19;2004495;-63
2022/02/02 12:57:25;;;;;;;;;;;;;;;13.28;71.95;101635.28;7359351;19;19978;-63
2022/02/02 13:00:06;;;;;;;;;;;;;;;13.35;71.93;101633.41;7356567;19;20357;-63
2022/02/02 13:02:34;;;;;;;;;;;;;;;13.45;72.33;101629.69;7361318;19;19962;-63
2022/02/02 13:05:01;;;;;;;;;;;;;;;13.53;71.87;101617.25;7356042;19;20376;-63
2022/02/02 13:07:27;;;;;;;;;;;;;;;13.63;71.93;101603.06;7363033;19;19949;-63
2022/02/02 13:09:53;;;;;;;;;;;;;;;13.75;72.36;101596.72;7363003;19;19915;-63
2022/02/02 13:12:28;;;;;;;;;;;;;;;13.87;72.17;101603.44;7362071;19;20801;-63
2022/02/02 13:15:11;;;;;;;;;;;;;;;13.97;71.46;101586.59;7361194;19;20015;-63
2022/02/02 13:18:02;;;;;;;;;;;;;;;14.02;71.06;101589.97;7367792;19;19918;-63
2022/02/02 13:20:33;;;;;;;;;;;;;;;14.07;70.83;101574.13;7374504;19;19914;-63
2022/02/02 13:23:11;;;;;;;;;;;;;;;14.06;70.87;101567.13;7369036;19;19929;-63
2022/02/02 13:25:39;;;;;;;;;;;;;;;14.05;70.58;101558.41;7357865;19;19919;-63
2022/02/02 13:28:06;;;;;;;;;;;;;;;14.03;70.35;101549.69;7358380;19;19978;-63
2022/02/02 13:30:49;;;;;;;;;;;;;;;14.03;70.25;101565.44;7366417;19;19927;-63
2022/02/02 13:33:31;;;;;;;;;;;;;;;14.02;70.26;101566.34;7361886;19;19918;-63
2022/02/02 13:36:16;;;;;;;;;;;;;;;14.01;70.25;101567.25;7357402;19;20013;-63
2022/02/02 13:39:14;;;;;;;;;;;;;;;14.00;70.12;101571.63;7359508;19;19923;-63
2022/02/02 13:44:53;;;;;;;;;;;;;;;13.94;69.56;101561.28;7262141;19;2004643;-63
2022/02/02 13:50:35;;;;;;;;;;;;;;;13.87;69.47;101564.06;7360727;19;20249;-63
2022/02/02 13:53:21;;;;;;;;;;;;;;;13.84;69.31;101564.13;7259854;19;2004491;-63
2022/02/02 13:56:05;;;;;;;;;;;;;;;13.80;69.32;101557.22;7363965;19;19931;-63
2022/02/02 13:59:05;;;;;;;;;;;;;;;13.76;69.67;101567.78;7356961;19;19915;-63
2022/02/02 14:04:18;;;;;;;;;;;;;;;13.68;69.50;101559.22;7371816;19;19922;-63
2022/02/02 14:09:17;;;;;;;;;;;;;;;13.61;69.59;101565.50;7371495;19;19958;-63
2022/02/02 14:33:21;;;;;;;;;;;;;;;13.27;69.40;101572.34;7364836;19;19989;-63
2022/02/02 14:35:47;;;;;;;;;;;;;;;13.23;69.10;101558.44;7360902;19;19922;-63
2022/02/02 14:38:14;;;;;;;;;;;;;;;13.21;69.45;101553.19;7357160;19;19922;-63
2022/02/02 14:43:14;;;;;;;;;;;;;;;13.18;69.17;101545.38;7363256;19;19911;-63
2022/02/02 14:45:45;;;;;;;;;;;;;;;13.16;69.17;101555.00;7366834;19;19930;-63
2022/02/02 14:48:21;;;;;;;;;;;;;;;13.15;69.22;101542.81;7362546;19;19911;-63
2022/02/02 15:28:08;;;;;;;;;;;;;;;13.05;69.57;101474.84;7360542;19;19974;-63
2022/02/02 15:33:03;;;;;;;;;;;;;;;13.03;69.33;101480.13;7363971;19;19937;-63
2022/02/02 15:35:30;;;;;;;;;;;;;;;13.03;69.58;101479.22;7364604;19;19914;-62
2022/02/02 15:38:13;;;;;;;;;;;;;;;12.96;69.70;101468.88;7363272;19;20374;-63
2022/02/02 15:40:45;;;;;;;;;;;;;;;13.01;69.45;101478.41;7358027;19;19910;-63
2022/02/02 16:04:34;;;;;;;;;;;;;;;12.94;69.61;101470.69;7363351;19;19914;-63
2022/02/02 16:07:03;;;;;;;;;;;;;;;12.93;69.33;101468.97;7363554;19;20641;-63
2022/02/02 16:09:38;;;;;;;;;;;;;;;12.93;69.76;101460.25;7362533;19;19931;-63
2022/02/02 16:12:08;;;;;;;;;;;;;;;12.92;69.46;101466.34;7361378;19;19923;-63
2022/02/02 16:14:40;;;;;;;;;;;;;;;12.90;69.43;101460.28;7357089;19;19926;-63
2022/02/02 16:24:41;;;;;;;;;;;;;;;12.55;69.18;101404.19;7361121;19;19919;-63
2022/02/02 16:25:15;;;;;;;;;;;;;;;12.81;69.45;101447.34;7354206;19;20355;-63
2022/02/02 16:34:33;;;;;;;;;;;;;;;12.70;69.33;101451.06;7358638;19;19941;-64
2022/02/02 16:38:21;;;;;;;;;;;;;;;12.61;69.31;101438.13;7371580;19;19923;-63
2022/02/02 16:40:50;;;;;;;;;;;;;;;12.57;69.16;101433.88;7368061;19;19970;-63
2022/02/02 16:43:15;;;;;;;;;;;;;;;12.53;69.41;101432.19;7366207;19;19915;-63
2022/02/02 16:45:52;;;;;;;;;;;;;;;12.50;69.10;101431.38;4968912;19;10000983;-63
2022/02/02 16:48:18;;;;;;;;;;;;;;;12.45;69.57;101423.59;4009471;19;10001965;-63
2022/02/02 16:50:46;;;;;;;;;;;;;;;12.40;69.32;101422.81;7361068;19;19922;-63
2022/02/02 16:53:25;;;;;;;;;;;;;;;12.36;69.55;101413.28;7358678;19;20450;-62
2022/02/02 16:56:14;;;;;;;;;;;;;;;12.32;69.14;101414.25;7356575;19;20303;-63
2022/02/02 17:30:58;;;;;;;;;;;;;;;11.64;70.69;101373.50;7370798;19;19964;-63
2022/02/02 17:41:20;;;;;;;;;;;;;;;11.59;70.60;101382.31;7362359;19;19915;-63
2022/02/02 18:21:31;;;;;;;;;;;;;;;11.51;71.29;101368.50;7240315;19;2004628;-62
2022/02/02 18:24:09;;;;;;;;;;;;;;;11.51;71.24;101364.13;7355375;19;19926;-63
2022/02/02 18:32:40;;;;;;;;;;;;;;;11.50;71.41;101362.38;7359856;19;19962;-63
2022/02/02 18:35:05;;;;;;;;;;;;;;;11.50;71.67;101356.28;6357878;19;10000644;-63
2022/02/02 18:38:27;;;;;;;;;;;;;;;11.49;71.42;101350.19;2737426;19;10002238;-63
2022/02/02 18:48:34;;;;;;;;;;;;;;;11.48;71.68;101356.34;7356563;19;19922;-63
2022/02/02 18:54:09;;;;;;;;;;;;;;;11.48;71.58;101353.72;7257561;19;2004608;-63
2022/02/02 19:04:34;;;;;;;;;;;;;;;11.49;71.97;101342.34;7360789;19;20334;-63
2022/02/02 19:56:19;;;;;;;;;;;;;;;11.33;72.04;101276.38;7253561;19;2004614;-63
2022/02/02 20:11:30;;;;;;;;;;;;;;;11.28;72.63;101249.44;7357923;19;19923;-63
2022/02/02 20:13:55;;;;;;;;;;;;;;;11.29;72.32;101255.53;7348696;19;19927;-63
2022/02/02 20:16:20;;;;;;;;;;;;;;;11.30;72.32;101259.88;7355033;19;19919;-63
2022/02/02 20:18:48;;;;;;;;;;;;;;;11.29;72.34;101255.53;7351089;19;19915;-64
2022/02/02 20:21:17;;;;;;;;;;;;;;;11.28;72.23;101243.34;7348866;19;19918;-63
2022/02/02 20:23:46;;;;;;;;;;;;;;;11.28;72.24;101240.75;7350092;19;20705;-63
2022/02/02 20:26:15;;;;;;;;;;;;;;;11.16;72.55;101216.53;7348575;19;19915;-64
2022/02/02 20:28:44;;;;;;;;;;;;;;;11.18;72.18;101225.19;5288548;19;10020994;-63
2022/02/02 20:31:10;;;;;;;;;;;;;;;11.26;72.22;101226.84;3240919;19;10002052;-63
2022/02/02 20:33:35;;;;;;;;;;;;;;;11.24;72.21;101226.00;7348711;19;19922;-63
2022/02/02 20:36:00;;;;;;;;;;;;;;;11.24;72.27;101223.38;7349946;19;20584;-63
2022/02/02 20:38:26;;;;;;;;;;;;;;;11.23;72.63;101221.66;7351715;19;20683;-63
2022/02/02 20:40:51;;;;;;;;;;;;;;;11.22;72.19;101222.56;7340747;19;19918;-60
2022/02/02 20:43:31;;;;;;;;;;;;;;;11.21;72.57;101218.22;7349438;19;19922;-62
2022/02/02 21:04:51;;;;;;;;;;;;;;;11.13;72.40;101194.81;7354952;19;19923;-62
2022/02/02 21:15:13;;;;;;;;;;;;;;;11.15;72.47;101173.00;7345924;19;19945;-62
2022/02/02 21:17:40;;;;;;;;;;;;;;;11.16;72.53;101169.47;7344213;19;19945;-62
2022/02/02 21:20:15;;;;;;;;;;;;;;;11.17;72.87;101165.97;7352945;19;19911;-62
2022/02/02 21:22:52;;;;;;;;;;;;;;;11.18;72.52;101167.69;7350971;19;19922;-61
2022/02/02 21:27:57;;;;;;;;;;;;;;;11.20;72.73;101158.94;7346902;19;19953;-61
2022/02/02 21:30:23;;;;;;;;;;;;;;;11.20;72.34;101161.56;7352782;19;20490;-62
2022/02/02 21:32:48;;;;;;;;;;;;;;;11.20;72.34;101162.44;7356995;19;19919;-62
2022/02/02 21:35:16;;;;;;;;;;;;;;;11.18;72.31;101144.16;7358146;19;19927;-62
2022/02/02 21:37:44;;;;;;;;;;;;;;;11.18;72.43;101141.56;7357300;19;19915;-62
2022/02/02 21:40:19;;;;;;;;;;;;;;;11.16;72.17;101130.28;7370346;19;19929;-62
2022/02/02 21:42:45;;;;;;;;;;;;;;;11.15;72.64;101131.16;7369919;19;19914;-62
2022/02/02 21:45:11;;;;;;;;;;;;;;;11.14;72.35;101145.09;7358533;19;19970;-62
2022/02/02 21:47:37;;;;;;;;;;;;;;;11.12;72.22;101152.13;7364131;19;20017;-62
2022/02/02 21:50:06;;;;;;;;;;;;;;;11.11;72.18;101133.88;7349224;19;20353;-62
2022/02/02 21:52:33;;;;;;;;;;;;;;;11.08;72.23;101124.31;7355019;19;19918;-62
2022/02/02 21:54:58;;;;;;;;;;;;;;;11.07;72.39;101122.59;7358497;19;19911;-62
2022/02/02 21:57:23;;;;;;;;;;;;;;;11.05;72.36;101129.63;7358169;19;19922;-62
2022/02/02 21:59:49;;;;;;;;;;;;;;;11.02;72.16;101124.44;7361012;19;19954;-62
2022/02/02 22:02:14;;;;;;;;;;;;;;;11.01;72.39;101133.16;7364281;19;20383;-62
2022/02/02 22:04:39;;;;;;;;;;;;;;;10.98;72.14;101127.97;7354769;19;19922;-62
2022/02/02 22:07:05;;;;;;;;;;;;;;;10.96;72.39;101129.78;7363083;19;19946;-62
2022/02/02 22:09:30;;;;;;;;;;;;;;;10.94;72.33;101122.84;7355921;19;20613;-62
2022/02/02 22:11:55;;;;;;;;;;;;;;;10.91;72.36;101122.00;7357913;19;19932;-62
2022/02/02 22:14:22;;;;;;;;;;;;;;;10.88;72.17;101121.19;7357726;19;19919;-62
2022/02/02 22:16:49;;;;;;;;;;;;;;;10.87;72.49;101116.84;7352636;19;19918;-62
2022/02/02 22:19:15;;;;;;;;;;;;;;;10.84;72.48;101115.13;7349705;19;19949;-62
2022/02/02 22:21:40;;;;;;;;;;;;;;;10.82;72.13;101116.06;7355559;19;19911;-62
2022/02/02 22:24:05;;;;;;;;;;;;;;;10.79;72.17;101116.13;7361745;19;19919;-62
2022/02/02 22:26:31;;;;;;;;;;;;;;;10.76;72.18;101106.59;7360841;19;19925;-62
2022/02/02 22:29:06;;;;;;;;;;;;;;;10.69;72.54;101098.88;3790387;19;10002131;-62
2022/02/02 22:31:31;;;;;;;;;;;;;;;10.72;72.21;101109.28;5131470;19;10000983;-62
2022/02/02 22:33:56;;;;;;;;;;;;;;;10.70;72.34;101108.47;7363834;19;19919;-62
2022/02/02 22:36:22;;;;;;;;;;;;;;;10.69;72.75;101110.19;7367338;19;19915;-61
2022/02/02 22:38:48;;;;;;;;;;;;;;;10.67;72.69;101113.72;7358111;19;19937;-61
2022/02/02 22:41:13;;;;;;;;;;;;;;;10.65;72.83;101114.63;7361470;19;19923;-62
2022/02/02 22:43:48;;;;;;;;;;;;;;;10.63;72.84;101111.16;7354937;19;19940;-61
2022/02/02 22:46:14;;;;;;;;;;;;;;;10.62;72.44;101109.44;7361908;19;19927;-62
2022/02/02 22:48:41;;;;;;;;;;;;;;;10.62;72.83;101109.44;7359929;19;20710;-62
2022/02/02 22:51:06;;;;;;;;;;;;;;;10.60;72.83;101100.78;7359357;19;19922;-62
2022/02/02 22:53:32;;;;;;;;;;;;;;;10.60;72.89;101115.56;7356251;19;19919;-62
2022/02/02 22:55:57;;;;;;;;;;;;;;;10.59;72.93;101117.34;7356289;19;19927;-62
2022/02/02 22:58:23;;;;;;;;;;;;;;;10.58;72.59;101123.41;7364911;19;19919;-62
2022/02/02 23:00:49;;;;;;;;;;;;;;;10.57;72.67;101126.91;7368865;19;19928;-61
2022/02/02 23:03:21;;;;;;;;;;;;;;;10.57;72.70;101120.84;7361904;19;19911;-61
2022/02/02 23:05:51;;;;;;;;;;;;;;;10.54;72.71;101111.31;7366866;19;19945;-62
2022/02/02 23:08:19;;;;;;;;;;;;;;;10.54;73.01;101094.75;7365764;19;20270;-61
2022/02/02 23:10:44;;;;;;;;;;;;;;;10.54;73.10;101086.94;7372854;19;20043;-61
2022/02/02 23:13:10;;;;;;;;;;;;;;;10.55;73.03;101091.28;7364058;19;19918;-62
2022/02/02 23:15:53;;;;;;;;;;;;;;;10.53;72.67;101093.91;7356997;19;19922;-62
2022/02/02 23:18:25;;;;;;;;;;;;;;;10.52;72.77;101081.75;7362735;19;19919;-61
2022/02/02 23:20:55;;;;;;;;;;;;;;;10.51;73.16;101077.41;7365762;19;19925;-61